Главная страница
METAR-TAF:

METAR-TAF

Аэропорты :

Wheeling - Ohio County Airport

Уилинг, Западная Виргиния, США

широта: 40-10-13N, долгота: 080-38-40W, высота над уровнем моря: 364 м

Текущие метеонаблюдения

Эта сводка был подготовлена 14 минут назад, в 23:53 UTC
Ветер 4 Узел от северный
Температура 22°C
Влажность 53%
Давление 1021 hPa
Видимость: 16.1 км
ясное небо

METAR: KHLG 232353Z 01004KT 10SM CLR 22/12 A3014 RMK AO2 SLP205 T02170117 10233 20189 56004

Время: 20:07 (00:07 UTC)

Прогноз

Эта сводка был подготовлена 47 минут назад, в 23:20 UTC
Прогноз действительный с 24-го 00 UTC до 24-го 24 UTC
Ветер 3 Узел от северный
Видимость: 10 км
ясное небо
С 24-го 0900 UTC
Ветер Узел от северный
Видимость: 3.2 км
ясное небо
дымка
С 24-го 1200 UTC
Ветер 3 Узел переменных направлений
Видимость: 10 км
ясное небо

TAF: KHLG 232320Z 2400/2424 36003KT P6SM SKC FM240900 00000KT 2SM BR SKC FM241200 VRB03KT P6SM SKC

Метеонаблюдения и прогнозы для более 4000 аэропортов (сводки METAR и TAF).

Имеющиеся станции представлены на карте желтыми и красными точками.

Чтобы увидеть название станции, наведите на нее мышь.

Затем щелкните, чтобы увидеть метеонаблюдения и метеопрогнозы.

Управление картой: чтобы увеличить масштаб, щелкните зеленые кнопки с черным крестиком; чтобы уменьшить масштаб, щелкните зеленую кнопку с тире; для просмотра соседних карт щелкайте зеленые стрелки.


METAR-TAF: